sensor_id;sensor_type;location;lat;lon;timestamp;temperature;humidity
27823;DHT22;29019;47.630;8.262;2023-04-01T00:03:57;20.30;36.00
27823;DHT22;29019;47.630;8.262;2023-04-01T00:07:57;20.30;36.00
27823;DHT22;29019;47.630;8.262;2023-04-01T00:11:58;20.20;36.00
27823;DHT22;29019;47.630;8.262;2023-04-01T00:15:58;20.30;36.10
27823;DHT22;29019;47.630;8.262;2023-04-01T00:19:59;20.30;36.00
27823;DHT22;29019;47.630;8.262;2023-04-01T00:24:00;20.20;36.00
27823;DHT22;29019;47.630;8.262;2023-04-01T00:28:00;20.20;36.00
27823;DHT22;29019;47.630;8.262;2023-04-01T00:32:01;20.20;36.00
27823;DHT22;29019;47.630;8.262;2023-04-01T00:36:08;20.30;36.10
27823;DHT22;29019;47.630;8.262;2023-04-01T00:40:20;20.20;36.00
27823;DHT22;29019;47.630;8.262;2023-04-01T00:44:23;20.20;36.10
27823;DHT22;29019;47.630;8.262;2023-04-01T00:48:26;20.20;36.00
27823;DHT22;29019;47.630;8.262;2023-04-01T00:52:28;20.20;36.10
27823;DHT22;29019;47.630;8.262;2023-04-01T00:56:33;20.20;36.10
27823;DHT22;29019;47.630;8.262;2023-04-01T01:00:34;20.20;36.10
27823;DHT22;29019;47.630;8.262;2023-04-01T01:04:35;20.20;36.10
27823;DHT22;29019;47.630;8.262;2023-04-01T01:08:40;20.20;36.10
27823;DHT22;29019;47.630;8.262;2023-04-01T01:12:52;20.20;36.10
27823;DHT22;29019;47.630;8.262;2023-04-01T01:17:10;20.10;36.10
27823;DHT22;29019;47.630;8.262;2023-04-01T01:29:34;20.10;36.10
27823;DHT22;29019;47.630;8.262;2023-04-01T01:33:42;20.10;36.20
27823;DHT22;29019;47.630;8.262;2023-04-01T01:37:46;20.10;36.20
27823;DHT22;29019;47.630;8.262;2023-04-01T01:41:50;20.00;36.20
27823;DHT22;29019;47.630;8.262;2023-04-01T01:45:52;20.10;36.20
27823;DHT22;29019;47.630;8.262;2023-04-01T01:49:53;20.00;36.10
27823;DHT22;29019;47.630;8.262;2023-04-01T01:53:55;20.00;36.10
27823;DHT22;29019;47.630;8.262;2023-04-01T01:57:59;20.00;36.20
27823;DHT22;29019;47.630;8.262;2023-04-01T02:02:01;20.00;36.10
27823;DHT22;29019;47.630;8.262;2023-04-01T02:06:08;20.00;36.20
27823;DHT22;29019;47.630;8.262;2023-04-01T02:10:10;20.00;36.20
27823;DHT22;29019;47.630;8.262;2023-04-01T02:14:18;20.00;36.20
27823;DHT22;29019;47.630;8.262;2023-04-01T02:18:20;20.00;36.20
27823;DHT22;29019;47.630;8.262;2023-04-01T02:22:24;20.00;36.20
27823;DHT22;29019;47.630;8.262;2023-04-01T02:26:26;19.90;36.20
27823;DHT22;29019;47.630;8.262;2023-04-01T02:30:27;20.00;36.30
27823;DHT22;29019;47.630;8.262;2023-04-01T02:34:29;20.00;36.20
27823;DHT22;29019;47.630;8.262;2023-04-01T02:38:29;19.90;36.20
27823;DHT22;29019;47.630;8.262;2023-04-01T02:42:30;20.00;36.20
27823;DHT22;29019;47.630;8.262;2023-04-01T02:46:30;19.90;36.20
27823;DHT22;29019;47.630;8.262;2023-04-01T02:50:31;19.90;36.20
27823;DHT22;29019;47.630;8.262;2023-04-01T02:54:31;19.90;36.20
27823;DHT22;29019;47.630;8.262;2023-04-01T02:58:31;19.90;36.80
27823;DHT22;29019;47.630;8.262;2023-04-01T03:02:32;19.90;36.30
27823;DHT22;29019;47.630;8.262;2023-04-01T03:06:32;19.90;36.30
27823;DHT22;29019;47.630;8.262;2023-04-01T03:10:33;19.90;36.30
27823;DHT22;29019;47.630;8.262;2023-04-01T03:14:33;19.90;36.40
27823;DHT22;29019;47.630;8.262;2023-04-01T03:18:34;19.90;36.30
27823;DHT22;29019;47.630;8.262;2023-04-01T03:22:34;19.80;36.30
27823;DHT22;29019;47.630;8.262;2023-04-01T03:26:35;19.90;36.30
27823;DHT22;29019;47.630;8.262;2023-04-01T03:30:35;19.90;36.30
27823;DHT22;29019;47.630;8.262;2023-04-01T03:34:36;19.90;36.30
27823;DHT22;29019;47.630;8.262;2023-04-01T03:38:36;19.90;36.30
27823;DHT22;29019;47.630;8.262;2023-04-01T03:42:37;19.90;36.30
27823;DHT22;29019;47.630;8.262;2023-04-01T03:46:37;19.90;36.30
27823;DHT22;29019;47.630;8.262;2023-04-01T03:50:38;19.90;36.30
27823;DHT22;29019;47.630;8.262;2023-04-01T03:54:38;19.90;36.30
27823;DHT22;29019;47.630;8.262;2023-04-01T03:58:39;19.90;36.30
27823;DHT22;29019;47.630;8.262;2023-04-01T04:02:39;19.90;36.20
27823;DHT22;29019;47.630;8.262;2023-04-01T04:06:40;19.90;36.20
27823;DHT22;29019;47.630;8.262;2023-04-01T04:10:40;19.90;36.30
27823;DHT22;29019;47.630;8.262;2023-04-01T04:14:41;19.90;36.20
27823;DHT22;29019;47.630;8.262;2023-04-01T04:18:41;20.00;36.10
27823;DHT22;29019;47.630;8.262;2023-04-01T04:22:42;20.10;36.00
27823;DHT22;29019;47.630;8.262;2023-04-01T04:26:42;20.20;36.00
27823;DHT22;29019;47.630;8.262;2023-04-01T04:30:43;20.30;36.00
27823;DHT22;29019;47.630;8.262;2023-04-01T04:34:43;20.30;35.90
27823;DHT22;29019;47.630;8.262;2023-04-01T04:38:44;20.40;35.90
27823;DHT22;29019;47.630;8.262;2023-04-01T04:42:44;20.50;35.80
27823;DHT22;29019;47.630;8.262;2023-04-01T04:46:45;20.50;35.90
27823;DHT22;29019;47.630;8.262;2023-04-01T04:50:49;20.50;35.90
27823;DHT22;29019;47.630;8.262;2023-04-01T04:54:49;20.50;35.90
27823;DHT22;29019;47.630;8.262;2023-04-01T04:58:50;20.60;35.80
27823;DHT22;29019;47.630;8.262;2023-04-01T05:02:50;20.60;35.90
27823;DHT22;29019;47.630;8.262;2023-04-01T05:06:51;20.60;35.80
27823;DHT22;29019;47.630;8.262;2023-04-01T05:10:51;20.60;35.80
27823;DHT22;29019;47.630;8.262;2023-04-01T05:14:52;20.60;35.80
27823;DHT22;29019;47.630;8.262;2023-04-01T05:18:52;20.50;35.80
27823;DHT22;29019;47.630;8.262;2023-04-01T05:22:56;20.50;35.80
27823;DHT22;29019;47.630;8.262;2023-04-01T05:26:56;20.50;35.80
27823;DHT22;29019;47.630;8.262;2023-04-01T05:31:01;20.50;36.00
27823;DHT22;29019;47.630;8.262;2023-04-01T05:35:02;20.50;36.00
27823;DHT22;29019;47.630;8.262;2023-04-01T05:39:02;20.50;35.90
27823;DHT22;29019;47.630;8.262;2023-04-01T05:43:03;20.40;35.90
27823;DHT22;29019;47.630;8.262;2023-04-01T05:47:04;20.40;35.90
27823;DHT22;29019;47.630;8.262;2023-04-01T05:51:04;20.40;36.00
27823;DHT22;29019;47.630;8.262;2023-04-01T05:55:05;20.40;36.00
27823;DHT22;29019;47.630;8.262;2023-04-01T05:59:06;20.40;36.10
27823;DHT22;29019;47.630;8.262;2023-04-01T06:03:06;20.40;36.10
27823;DHT22;29019;47.630;8.262;2023-04-01T06:07:10;20.50;36.80
27823;DHT22;29019;47.630;8.262;2023-04-01T06:11:29;20.50;36.00
27823;DHT22;29019;47.630;8.262;2023-04-01T06:15:36;20.60;36.10
27823;DHT22;29019;47.630;8.262;2023-04-01T06:19:44;20.60;36.10
27823;DHT22;29019;47.630;8.262;2023-04-01T06:48:34;20.70;35.90
27823;DHT22;29019;47.630;8.262;2023-04-01T06:52:43;20.70;36.00
27823;DHT22;29019;47.630;8.262;2023-04-01T06:56:46;20.70;36.10
27823;DHT22;29019;47.630;8.262;2023-04-01T07:00:50;20.70;36.20
27823;DHT22;29019;47.630;8.262;2023-04-01T07:04:53;20.60;36.10
27823;DHT22;29019;47.630;8.262;2023-04-01T07:08:55;20.60;36.20
27823;DHT22;29019;47.630;8.262;2023-04-01T07:13:00;20.60;36.20
27823;DHT22;29019;47.630;8.262;2023-04-01T07:17:04;20.60;36.20
27823;DHT22;29019;47.630;8.262;2023-04-01T07:21:09;20.60;36.20
27823;DHT22;29019;47.630;8.262;2023-04-01T07:29:14;20.50;36.30
27823;DHT22;29019;47.630;8.262;2023-04-01T07:33:23;20.60;36.40
27823;DHT22;29019;47.630;8.262;2023-04-01T07:50:27;20.70;36.30
27823;DHT22;29019;47.630;8.262;2023-04-01T07:58:56;20.80;36.20
27823;DHT22;29019;47.630;8.262;2023-04-01T08:11:29;20.90;36.20
27823;DHT22;29019;47.630;8.262;2023-04-01T08:15:42;20.90;36.20
27823;DHT22;29019;47.630;8.262;2023-04-01T08:19:49;20.90;36.20
27823;DHT22;29019;47.630;8.262;2023-04-01T08:23:55;20.80;36.20
27823;DHT22;29019;47.630;8.262;2023-04-01T08:27:59;20.80;36.30
27823;DHT22;29019;47.630;8.262;2023-04-01T08:32:05;20.80;36.20
27823;DHT22;29019;47.630;8.262;2023-04-01T08:36:08;20.80;36.30
27823;DHT22;29019;47.630;8.262;2023-04-01T08:40:17;20.80;36.40
27823;DHT22;29019;47.630;8.262;2023-04-01T08:57:16;20.70;36.40
27823;DHT22;29019;47.630;8.262;2023-04-01T09:01:26;20.70;36.40
27823;DHT22;29019;47.630;8.262;2023-04-01T09:47:29;20.60;36.50
27823;DHT22;29019;47.630;8.262;2023-04-01T09:51:39;20.60;36.50
27823;DHT22;29019;47.630;8.262;2023-04-01T10:04:54;20.60;36.50
27823;DHT22;29019;47.630;8.262;2023-04-01T10:08:41;20.60;36.60
27823;DHT22;29019;47.630;8.262;2023-04-01T10:21:16;20.80;36.50
27823;DHT22;29019;47.630;8.262;2023-04-01T10:37:53;20.90;36.60
27823;DHT22;29019;47.630;8.262;2023-04-01T10:46:21;20.90;36.60
27823;DHT22;29019;47.630;8.262;2023-04-01T10:50:53;20.90;36.50
27823;DHT22;29019;47.630;8.262;2023-04-01T10:54:57;20.90;36.50
27823;DHT22;29019;47.630;8.262;2023-04-01T10:59:11;20.90;36.60
27823;DHT22;29019;47.630;8.262;2023-04-01T11:27:38;20.80;36.70
27823;DHT22;29019;47.630;8.262;2023-04-01T11:40:20;20.80;36.80
27823;DHT22;29019;47.630;8.262;2023-04-01T11:44:26;20.80;37.40
27823;DHT22;29019;47.630;8.262;2023-04-01T11:56:39;20.80;37.00
27823;DHT22;29019;47.630;8.262;2023-04-01T12:00:46;20.80;37.00
27823;DHT22;29019;47.630;8.262;2023-04-01T12:04:54;20.80;37.00
27823;DHT22;29019;47.630;8.262;2023-04-01T12:12:59;20.80;37.00
27823;DHT22;29019;47.630;8.262;2023-04-01T12:17:07;20.80;37.00
27823;DHT22;29019;47.630;8.262;2023-04-01T12:21:14;20.80;37.00
27823;DHT22;29019;47.630;8.262;2023-04-01T12:25:31;20.80;37.00
27823;DHT22;29019;47.630;8.262;2023-04-01T12:37:58;20.90;37.00
27823;DHT22;29019;47.630;8.262;2023-04-01T12:42:09;20.90;37.00
27823;DHT22;29019;47.630;8.262;2023-04-01T12:46:13;20.90;37.00
27823;DHT22;29019;47.630;8.262;2023-04-01T12:50:19;20.90;37.10
27823;DHT22;29019;47.630;8.262;2023-04-01T12:58:56;20.90;37.00
27823;DHT22;29019;47.630;8.262;2023-04-01T13:03:02;20.90;37.00
27823;DHT22;29019;47.630;8.262;2023-04-01T13:07:14;21.00;37.10
27823;DHT22;29019;47.630;8.262;2023-04-01T13:11:22;20.90;37.00
27823;DHT22;29019;47.630;8.262;2023-04-01T13:15:27;20.90;37.00
27823;DHT22;29019;47.630;8.262;2023-04-01T13:19:33;20.90;37.00
27823;DHT22;29019;47.630;8.262;2023-04-01T13:28:14;20.90;37.00
27823;DHT22;29019;47.630;8.262;2023-04-01T13:36:34;20.90;37.00
27823;DHT22;29019;47.630;8.262;2023-04-01T13:40:42;20.90;37.10
27823;DHT22;29019;47.630;8.262;2023-04-01T13:44:46;20.90;37.10
27823;DHT22;29019;47.630;8.262;2023-04-01T13:53:18;21.00;37.10
27823;DHT22;29019;47.630;8.262;2023-04-01T14:05:47;20.90;37.10
27823;DHT22;29019;47.630;8.262;2023-04-01T14:09:59;21.00;37.10
27823;DHT22;29019;47.630;8.262;2023-04-01T14:14:06;21.00;37.10
27823;DHT22;29019;47.630;8.262;2023-04-01T14:18:16;21.00;37.10
27823;DHT22;29019;47.630;8.262;2023-04-01T14:34:53;21.00;37.10
27823;DHT22;29019;47.630;8.262;2023-04-01T14:51:54;21.00;37.10
27823;DHT22;29019;47.630;8.262;2023-04-01T14:55:55;21.10;37.10
27823;DHT22;29019;47.630;8.262;2023-04-01T15:00:00;21.10;37.00
27823;DHT22;29019;47.630;8.262;2023-04-01T15:04:16;21.10;37.00
27823;DHT22;29019;47.630;8.262;2023-04-01T15:08:27;21.10;37.10
27823;DHT22;29019;47.630;8.262;2023-04-01T15:12:30;21.10;37.00
27823;DHT22;29019;47.630;8.262;2023-04-01T15:16:39;21.10;37.00
27823;DHT22;29019;47.630;8.262;2023-04-01T15:38:21;21.10;37.00
27823;DHT22;29019;47.630;8.262;2023-04-01T15:46:26;21.10;36.90
27823;DHT22;29019;47.630;8.262;2023-04-01T15:54:32;21.10;37.00
27823;DHT22;29019;47.630;8.262;2023-04-01T15:58:56;21.10;36.90
27823;DHT22;29019;47.630;8.262;2023-04-01T16:19:49;21.10;36.90
27823;DHT22;29019;47.630;8.262;2023-04-01T16:23:51;21.10;36.90
27823;DHT22;29019;47.630;8.262;2023-04-01T16:36:24;21.10;36.80
27823;DHT22;29019;47.630;8.262;2023-04-01T16:44:55;21.10;36.80
27823;DHT22;29019;47.630;8.262;2023-04-01T16:57:20;21.10;36.80
27823;DHT22;29019;47.630;8.262;2023-04-01T17:01:27;21.10;36.80
27823;DHT22;29019;47.630;8.262;2023-04-01T17:06:11;21.10;36.80
27823;DHT22;29019;47.630;8.262;2023-04-01T17:18:10;21.00;36.70
27823;DHT22;29019;47.630;8.262;2023-04-01T17:26:26;21.00;36.70
27823;DHT22;29019;47.630;8.262;2023-04-01T17:30:41;21.00;36.70
27823;DHT22;29019;47.630;8.262;2023-04-01T17:47:51;21.00;36.80
27823;DHT22;29019;47.630;8.262;2023-04-01T17:51:55;21.00;36.70
27823;DHT22;29019;47.630;8.262;2023-04-01T17:56:05;21.00;36.70
27823;DHT22;29019;47.630;8.262;2023-04-01T18:04:23;21.00;36.70
27823;DHT22;29019;47.630;8.262;2023-04-01T18:08:28;21.00;36.70
27823;DHT22;29019;47.630;8.262;2023-04-01T18:17:18;21.00;36.80
27823;DHT22;29019;47.630;8.262;2023-04-01T18:21:29;21.00;36.80
27823;DHT22;29019;47.630;8.262;2023-04-01T18:25:35;21.00;36.80
27823;DHT22;29019;47.630;8.262;2023-04-01T18:29:40;21.00;36.70
27823;DHT22;29019;47.630;8.262;2023-04-01T18:33:44;21.00;36.70
27823;DHT22;29019;47.630;8.262;2023-04-01T18:37:55;20.90;36.60
27823;DHT22;29019;47.630;8.262;2023-04-01T18:42:14;20.90;36.60
27823;DHT22;29019;47.630;8.262;2023-04-01T18:46:17;20.90;36.60
27823;DHT22;29019;47.630;8.262;2023-04-01T18:50:26;20.90;36.60
27823;DHT22;29019;47.630;8.262;2023-04-01T18:54:42;20.90;36.60
27823;DHT22;29019;47.630;8.262;2023-04-01T19:02:48;20.90;36.60
27823;DHT22;29019;47.630;8.262;2023-04-01T19:06:52;20.90;36.70
27823;DHT22;29019;47.630;8.262;2023-04-01T19:27:29;20.90;36.70
27823;DHT22;29019;47.630;8.262;2023-04-01T19:31:44;20.90;36.60
27823;DHT22;29019;47.630;8.262;2023-04-01T19:35:49;20.90;36.60
27823;DHT22;29019;47.630;8.262;2023-04-01T19:40:01;20.90;37.20
27823;DHT22;29019;47.630;8.262;2023-04-01T19:48:30;20.90;36.70
27823;DHT22;29019;47.630;8.262;2023-04-01T19:52:39;20.90;36.70
27823;DHT22;29019;47.630;8.262;2023-04-01T19:56:47;20.90;36.60
27823;DHT22;29019;47.630;8.262;2023-04-01T20:00:55;20.90;36.70
27823;DHT22;29019;47.630;8.262;2023-04-01T20:04:57;20.90;36.60
27823;DHT22;29019;47.630;8.262;2023-04-01T20:09:25;20.90;36.60
27823;DHT22;29019;47.630;8.262;2023-04-01T20:21:45;20.80;36.60
27823;DHT22;29019;47.630;8.262;2023-04-01T20:25:48;20.80;36.70
27823;DHT22;29019;47.630;8.262;2023-04-01T20:29:59;20.80;36.60
27823;DHT22;29019;47.630;8.262;2023-04-01T20:34:12;20.80;36.70
27823;DHT22;29019;47.630;8.262;2023-04-01T20:42:24;20.90;36.70
27823;DHT22;29019;47.630;8.262;2023-04-01T20:46:30;20.80;36.70
27823;DHT22;29019;47.630;8.262;2023-04-01T20:50:34;20.80;36.70
27823;DHT22;29019;47.630;8.262;2023-04-01T20:58:42;20.80;36.60
27823;DHT22;29019;47.630;8.262;2023-04-01T21:02:48;20.70;36.50
27823;DHT22;29019;47.630;8.262;2023-04-01T21:06:53;20.70;36.60
27823;DHT22;29019;47.630;8.262;2023-04-01T21:11:16;20.70;36.60
27823;DHT22;29019;47.630;8.262;2023-04-01T21:23:52;20.60;36.50
27823;DHT22;29019;47.630;8.262;2023-04-01T21:32:04;20.60;36.50
27823;DHT22;29019;47.630;8.262;2023-04-01T21:40:18;20.60;36.50
27823;DHT22;29019;47.630;8.262;2023-04-01T21:48:31;20.50;36.50
27823;DHT22;29019;47.630;8.262;2023-04-01T22:05:37;20.40;36.50
27823;DHT22;29019;47.630;8.262;2023-04-01T22:09:48;20.50;36.50
27823;DHT22;29019;47.630;8.262;2023-04-01T22:13:56;20.40;36.50
27823;DHT22;29019;47.630;8.262;2023-04-01T22:18:05;20.40;37.00
27823;DHT22;29019;47.630;8.262;2023-04-01T22:22:16;20.40;36.50
27823;DHT22;29019;47.630;8.262;2023-04-01T22:26:27;20.40;36.50
27823;DHT22;29019;47.630;8.262;2023-04-01T22:30:41;20.30;37.00
27823;DHT22;29019;47.630;8.262;2023-04-01T22:35:04;20.30;36.50
27823;DHT22;29019;47.630;8.262;2023-04-01T22:43:50;20.30;36.60
27823;DHT22;29019;47.630;8.262;2023-04-01T22:47:57;20.30;36.60
27823;DHT22;29019;47.630;8.262;2023-04-01T22:52:03;20.30;36.60
27823;DHT22;29019;47.630;8.262;2023-04-01T22:56:07;20.30;36.60
27823;DHT22;29019;47.630;8.262;2023-04-01T23:00:12;20.20;36.60
27823;DHT22;29019;47.630;8.262;2023-04-01T23:04:16;20.20;36.90
27823;DHT22;29019;47.630;8.262;2023-04-01T23:12:24;20.20;36.60
27823;DHT22;29019;47.630;8.262;2023-04-01T23:16:28;20.20;36.60
27823;DHT22;29019;47.630;8.262;2023-04-01T23:24:58;20.20;36.70
27823;DHT22;29019;47.630;8.262;2023-04-01T23:28:55;20.20;36.70
27823;DHT22;29019;47.630;8.262;2023-04-01T23:33:02;20.20;36.70
27823;DHT22;29019;47.630;8.262;2023-04-01T23:37:12;20.20;36.70
27823;DHT22;29019;47.630;8.262;2023-04-01T23:41:17;20.10;36.70
27823;DHT22;29019;47.630;8.262;2023-04-01T23:45:18;20.10;36.70
27823;DHT22;29019;47.630;8.262;2023-04-01T23:49:28;20.10;36.70
27823;DHT22;29019;47.630;8.262;2023-04-01T23:53:33;20.10;36.70
27823;DHT22;29019;47.630;8.262;2023-04-01T23:57:34;20.10;36.70
